createdAt,value
2022-09-23T00:00:46.498Z,2.10
2022-09-23T00:03:13.375Z,2.67
2022-09-23T00:05:39.930Z,2.65
2022-09-23T00:08:08.049Z,2.22
2022-09-23T00:10:38.173Z,1.73
2022-09-23T00:13:06.088Z,2.05
2022-09-23T00:15:38.241Z,1.95
2022-09-23T00:18:04.718Z,1.63
2022-09-23T00:20:33.702Z,1.70
2022-09-23T00:23:00.531Z,1.77
2022-09-23T00:25:29.693Z,1.70
2022-09-23T00:27:57.135Z,1.80
2022-09-23T00:30:23.618Z,1.60
2022-09-23T00:32:50.212Z,1.83
2022-09-23T00:35:16.669Z,1.40
2022-09-23T00:37:43.081Z,1.55
2022-09-23T00:40:12.239Z,1.80
2022-09-23T00:42:46.731Z,1.92
2022-09-23T00:45:13.406Z,1.88
2022-09-23T00:47:48.240Z,2.00
2022-09-23T00:50:24.549Z,1.60
2022-09-23T00:52:54.087Z,1.83
2022-09-23T00:55:30.325Z,1.67
2022-09-23T00:57:59.153Z,2.00
2022-09-23T01:00:25.606Z,1.63
2022-09-23T01:02:52.205Z,1.80
2022-09-23T01:05:18.945Z,1.45
2022-09-23T01:07:45.860Z,1.75
2022-09-23T01:10:15.603Z,1.70
2022-09-23T01:13:23.364Z,2.00
2022-09-23T01:16:12.208Z,1.88
2022-09-23T01:19:15.690Z,1.73
2022-09-23T01:21:52.646Z,1.88
2022-09-23T01:27:02.299Z,1.60
2022-09-23T01:29:50.831Z,1.80
2022-09-23T01:32:35.785Z,1.90
2022-09-23T01:35:18.835Z,1.70
2022-09-23T01:38:09.623Z,2.05
2022-09-23T01:40:51.903Z,2.00
2022-09-23T01:43:34.952Z,1.80
2022-09-23T01:46:07.418Z,2.53
2022-09-23T01:48:59.941Z,2.53
2022-09-23T01:51:41.533Z,2.47
2022-09-23T01:54:22.452Z,2.75
2022-09-23T01:57:02.901Z,2.67
2022-09-23T01:59:35.023Z,3.15
2022-09-23T02:02:11.090Z,3.00
2022-09-23T02:04:45.595Z,3.50
2022-09-23T02:07:25.235Z,3.15
2022-09-23T02:10:05.759Z,3.30
2022-09-23T02:12:35.670Z,3.05
2022-09-23T02:15:07.164Z,3.95
2022-09-23T02:17:40.030Z,3.92
2022-09-23T02:20:08.024Z,4.00
2022-09-23T02:22:47.494Z,4.13
2022-09-23T02:25:17.155Z,4.07
2022-09-23T02:28:01.789Z,5.50
2022-09-23T02:30:32.204Z,4.88
2022-09-23T02:33:11.812Z,4.93
2022-09-23T02:35:53.855Z,6.00
2022-09-23T02:38:39.949Z,5.30
2022-09-23T02:41:15.283Z,4.78
2022-09-23T02:43:54.692Z,4.75
2022-09-23T02:46:23.018Z,6.30
2022-09-23T02:48:56.659Z,4.25
2022-09-23T02:51:28.803Z,5.20
2022-09-23T02:53:57.558Z,4.57
2022-09-23T02:56:24.594Z,4.68
2022-09-23T02:58:55.082Z,4.15
2022-09-23T03:01:52.866Z,4.18
2022-09-23T03:04:34.446Z,4.65
2022-09-23T03:07:08.747Z,4.38
2022-09-23T03:09:58.359Z,4.03
2022-09-23T03:12:47.742Z,4.00
2022-09-23T03:18:03.554Z,3.72
2022-09-23T03:20:39.961Z,3.85
2022-09-23T03:23:10.595Z,3.58
2022-09-23T03:25:41.178Z,3.67
2022-09-23T03:28:09.706Z,3.30
2022-09-23T03:30:37.432Z,3.53
2022-09-23T03:33:08.124Z,3.72
2022-09-23T03:38:31.238Z,3.58
2022-09-23T03:41:02.888Z,2.95
2022-09-23T03:43:30.123Z,3.85
2022-09-23T03:45:57.579Z,3.65
2022-09-23T03:48:24.956Z,3.30
2022-09-23T03:50:51.432Z,3.78
2022-09-23T03:53:18.304Z,4.32
2022-09-23T03:55:46.560Z,5.03
2022-09-23T03:58:12.953Z,4.60
2022-09-23T04:00:39.601Z,4.75
2022-09-23T04:03:10.870Z,4.32
2022-09-23T04:05:38.126Z,3.67
2022-09-23T04:08:04.639Z,4.53
2022-09-23T04:10:31.056Z,4.25
2022-09-23T04:12:57.457Z,4.55
2022-09-23T04:15:23.891Z,5.40
2022-09-23T04:17:50.293Z,5.25
2022-09-23T04:20:17.281Z,5.68
2022-09-23T04:22:43.909Z,6.10
2022-09-23T04:25:10.447Z,6.05
2022-09-23T04:27:38.092Z,5.05
2022-09-23T04:30:06.350Z,5.18
2022-09-23T04:32:32.847Z,5.05
2022-09-23T04:34:59.249Z,5.15
2022-09-23T04:37:25.671Z,5.20
2022-09-23T04:39:52.214Z,6.38
2022-09-23T04:42:18.605Z,6.28
2022-09-23T04:44:45.032Z,7.00
2022-09-23T04:47:11.471Z,6.32
2022-09-23T04:49:38.351Z,5.93
2022-09-23T04:52:05.721Z,4.80
2022-09-23T04:54:32.883Z,6.05
2022-09-23T04:56:59.367Z,4.90
2022-09-23T04:59:25.790Z,6.07
2022-09-23T05:01:55.340Z,6.32
2022-09-23T05:04:22.795Z,5.32
2022-09-23T05:06:49.213Z,5.88
2022-09-23T05:09:17.416Z,7.97
2022-09-23T05:11:44.299Z,8.35
2022-09-23T05:14:11.006Z,7.20
2022-09-23T05:16:37.662Z,6.00
2022-09-23T05:19:04.211Z,5.50
2022-09-23T05:21:31.280Z,5.18
2022-09-23T05:24:01.769Z,5.18
2022-09-23T05:26:31.342Z,5.38
2022-09-23T05:28:58.507Z,6.07
2022-09-23T05:31:27.318Z,5.28
2022-09-23T05:33:59.006Z,5.70
2022-09-23T05:36:27.463Z,5.65
2022-09-23T05:38:56.475Z,5.05
2022-09-23T05:41:24.323Z,8.05
2022-09-23T05:43:52.278Z,7.88
2022-09-23T05:46:21.193Z,8.57
2022-09-23T05:48:48.014Z,8.15
2022-09-23T05:51:18.368Z,6.07
2022-09-23T05:53:45.524Z,6.45
2022-09-23T05:56:17.663Z,6.13
2022-09-23T05:58:44.778Z,4.82
2022-09-23T06:01:11.349Z,4.38
2022-09-23T06:03:38.171Z,5.05
2022-09-23T06:06:05.287Z,4.80
2022-09-23T06:08:33.599Z,5.30
2022-09-23T06:11:08.282Z,4.95
2022-09-23T06:13:38.068Z,5.55
2022-09-23T06:16:09.850Z,4.30
2022-09-23T06:18:39.383Z,5.38
2022-09-23T06:21:06.732Z,8.88
2022-09-23T06:23:34.535Z,6.95
2022-09-23T06:26:04.780Z,6.30
2022-09-23T06:28:37.139Z,6.88
2022-09-23T06:31:12.856Z,5.68
2022-09-23T06:33:40.414Z,5.50
2022-09-23T06:36:07.968Z,6.18
2022-09-23T06:38:34.905Z,5.30
2022-09-23T06:41:03.151Z,3.90
2022-09-23T06:43:30.366Z,5.05
2022-09-23T06:46:01.677Z,6.10
2022-09-23T06:48:28.784Z,5.68
2022-09-23T06:50:59.592Z,5.78
2022-09-23T06:53:26.064Z,4.57
2022-09-23T06:56:02.561Z,5.68
2022-09-23T06:58:31.706Z,3.78
2022-09-23T07:01:07.159Z,3.95
2022-09-23T07:03:34.841Z,4.53
2022-09-23T07:06:01.979Z,4.00
2022-09-23T07:08:29.883Z,5.10
2022-09-23T07:10:59.000Z,5.15
2022-09-23T07:13:26.006Z,5.55
2022-09-23T07:15:54.145Z,5.18
2022-09-23T07:18:24.432Z,5.72
2022-09-23T07:20:51.909Z,7.32
2022-09-23T07:23:18.713Z,5.70
2022-09-23T07:25:50.362Z,4.53
2022-09-23T07:28:18.003Z,5.72
2022-09-23T07:30:54.676Z,5.78
2022-09-23T07:33:32.196Z,5.53
2022-09-23T07:35:59.624Z,5.60
2022-09-23T07:38:30.070Z,4.55
2022-09-23T07:41:08.903Z,4.63
2022-09-23T07:43:35.748Z,5.55
2022-09-23T07:46:05.785Z,4.50
2022-09-23T07:48:34.511Z,4.72
2022-09-23T07:51:06.767Z,4.10
2022-09-23T07:53:33.392Z,4.47
2022-09-23T07:55:59.794Z,5.00
2022-09-23T07:58:26.251Z,5.53
2022-09-23T08:00:53.643Z,5.47
2022-09-23T08:03:20.840Z,4.10
2022-09-23T08:05:47.321Z,4.85
2022-09-23T08:08:14.185Z,4.47
2022-09-23T08:10:40.705Z,5.60
2022-09-23T08:13:07.174Z,5.30
2022-09-23T08:15:34.358Z,5.50
2022-09-23T08:18:01.205Z,4.97
2022-09-23T08:20:47.895Z,5.32
2022-09-23T08:23:16.135Z,3.80
2022-09-23T08:25:46.748Z,5.13
2022-09-23T08:28:18.671Z,4.80
2022-09-23T08:30:48.796Z,5.95
2022-09-23T08:33:19.679Z,5.03
2022-09-23T08:35:49.440Z,5.13
2022-09-23T08:38:16.195Z,5.63
2022-09-23T08:40:47.346Z,4.70
2022-09-23T08:43:27.646Z,5.40
2022-09-23T08:45:57.242Z,4.82
2022-09-23T08:48:37.508Z,5.00
2022-09-23T08:51:12.641Z,5.80
2022-09-23T08:53:40.388Z,4.72
2022-09-23T08:56:11.676Z,5.35
2022-09-23T08:59:12.087Z,5.68
2022-09-23T09:01:48.553Z,5.32
2022-09-23T09:07:35.158Z,6.88
2022-09-23T09:10:16.395Z,4.80
2022-09-23T09:12:49.787Z,3.50
2022-09-23T09:15:20.861Z,4.75
2022-09-23T09:18:07.844Z,3.90
2022-09-23T09:20:49.490Z,4.38
2022-09-23T09:23:37.503Z,3.80
2022-09-23T09:26:05.916Z,4.00
2022-09-23T09:28:40.636Z,4.40
2022-09-23T09:31:26.457Z,4.40
2022-09-23T09:34:02.599Z,3.88
2022-09-23T09:36:38.038Z,4.05
2022-09-23T09:39:04.919Z,3.78
2022-09-23T09:41:31.462Z,3.30
2022-09-23T09:44:00.855Z,3.45
2022-09-23T09:46:45.130Z,3.33
2022-09-23T09:49:23.091Z,4.55
2022-09-23T09:52:12.520Z,3.95
2022-09-23T09:54:39.610Z,3.30
2022-09-23T09:57:16.336Z,3.28
2022-09-23T09:59:44.012Z,3.28
2022-09-23T10:02:30.397Z,2.67
2022-09-23T10:05:00.362Z,2.30
2022-09-23T10:07:30.417Z,4.55
2022-09-23T10:12:46.710Z,2.40
2022-09-23T10:15:44.750Z,2.72
2022-09-23T10:18:39.160Z,1.90
2022-09-23T10:21:10.739Z,1.98
2022-09-23T10:24:07.412Z,3.35
2022-09-23T10:26:44.692Z,3.03
2022-09-23T10:29:33.930Z,2.15
2022-09-23T10:32:30.172Z,2.10
2022-09-23T10:35:21.011Z,2.42
2022-09-23T10:37:55.730Z,2.30
2022-09-23T10:40:57.930Z,2.20
2022-09-23T10:44:16.426Z,2.40
2022-09-23T10:47:01.608Z,2.38
2022-09-23T10:49:53.453Z,1.95
2022-09-23T10:52:41.478Z,2.10
2022-09-23T10:55:31.489Z,2.17
2022-09-23T10:58:27.351Z,2.20
2022-09-23T11:01:15.141Z,2.03
2022-09-23T11:03:54.207Z,2.70
2022-09-23T11:06:20.568Z,2.25
2022-09-23T11:08:59.209Z,2.40
2022-09-23T11:11:46.015Z,2.33
2022-09-23T11:14:51.488Z,1.80
2022-09-23T11:18:06.537Z,2.15
2022-09-23T11:20:57.981Z,2.35
2022-09-23T11:23:47.909Z,2.25
2022-09-23T11:26:33.995Z,2.00
2022-09-23T11:29:17.184Z,2.25
2022-09-23T11:32:27.765Z,2.15
2022-09-23T11:35:11.704Z,2.20
2022-09-23T11:37:47.833Z,4.97
2022-09-23T11:40:20.760Z,2.40
2022-09-23T11:42:55.456Z,9.90
2022-09-23T11:45:29.044Z,2.92
2022-09-23T11:48:00.564Z,2.90
2022-09-23T11:50:36.840Z,3.67
2022-09-23T11:55:49.111Z,2.70
2022-09-23T11:58:34.782Z,5.53
2022-09-23T12:01:07.677Z,6.28
2022-09-23T12:03:44.971Z,2.47
2022-09-23T12:06:22.953Z,4.30
2022-09-23T12:08:59.392Z,2.45
2022-09-23T12:11:32.031Z,2.10
2022-09-23T12:14:19.279Z,2.17
2022-09-23T12:16:53.668Z,2.05
2022-09-23T12:19:42.717Z,2.00
2022-09-23T12:22:21.050Z,2.22
2022-09-23T12:25:29.328Z,2.30
2022-09-23T12:28:21.017Z,2.38
2022-09-23T12:30:48.791Z,2.85
2022-09-23T12:33:27.677Z,2.58
2022-09-23T12:36:13.663Z,2.67
2022-09-23T12:38:55.824Z,2.10
2022-09-23T12:41:37.004Z,1.80
2022-09-23T12:44:12.877Z,1.80
2022-09-23T12:46:48.444Z,1.65
2022-09-23T12:49:28.152Z,1.63
2022-09-23T12:52:16.070Z,1.77
2022-09-23T12:54:45.107Z,1.83
2022-09-23T12:57:34.392Z,1.65
2022-09-23T13:00:07.192Z,1.63
2022-09-23T13:03:11.125Z,1.85
2022-09-23T13:06:09.843Z,1.73
2022-09-23T13:08:39.068Z,1.40
2022-09-23T13:11:13.973Z,1.92
2022-09-23T13:13:44.382Z,1.75
2022-09-23T13:16:43.595Z,1.75
2022-09-23T13:19:28.395Z,1.70
2022-09-23T13:21:54.888Z,1.50
2022-09-23T13:24:31.053Z,1.40
2022-09-23T13:27:11.310Z,1.58
2022-09-23T13:29:51.847Z,1.23
2022-09-23T13:32:21.258Z,1.02
2022-09-23T13:35:04.179Z,1.40
2022-09-23T13:37:50.851Z,2.60
2022-09-23T13:40:29.204Z,1.58
2022-09-23T13:43:09.167Z,1.55
2022-09-23T13:45:43.525Z,1.60
2022-09-23T13:48:18.238Z,1.33
2022-09-23T13:50:50.180Z,2.08
2022-09-23T13:53:31.875Z,1.10
2022-09-23T13:56:13.163Z,1.65
2022-09-23T13:58:40.483Z,1.98
2022-09-23T14:01:22.428Z,1.35
2022-09-23T14:03:49.045Z,1.55
2022-09-23T14:06:16.592Z,1.08
2022-09-23T14:08:50.751Z,1.52
2022-09-23T14:11:19.709Z,1.70
2022-09-23T14:13:49.003Z,1.40
2022-09-23T14:16:17.203Z,1.80
2022-09-23T14:18:46.816Z,1.38
2022-09-23T14:21:34.876Z,1.50
2022-09-23T14:24:10.560Z,1.85
2022-09-23T14:26:38.491Z,2.20
2022-09-23T14:29:06.665Z,1.20
2022-09-23T14:31:33.398Z,1.40
2022-09-23T14:33:59.967Z,1.90
2022-09-23T14:36:45.139Z,1.67
2022-09-23T14:39:12.535Z,1.48
2022-09-23T14:41:45.503Z,1.60
2022-09-23T14:44:22.046Z,1.42
2022-09-23T14:46:58.245Z,1.60
2022-09-23T14:49:25.561Z,1.30
2022-09-23T14:52:01.337Z,1.45
2022-09-23T14:54:45.920Z,1.35
2022-09-23T14:57:29.005Z,1.48
2022-09-23T14:59:59.089Z,2.22
2022-09-23T15:02:59.123Z,1.42
2022-09-23T15:05:42.029Z,1.35
2022-09-23T15:08:13.535Z,1.10
2022-09-23T15:10:40.616Z,1.50
2022-09-23T15:13:16.742Z,1.35
2022-09-23T15:15:43.972Z,1.40
2022-09-23T15:18:24.620Z,1.98
2022-09-23T15:20:53.513Z,1.65
2022-09-23T15:23:41.724Z,1.40
2022-09-23T15:26:45.192Z,1.50
2022-09-23T15:29:11.662Z,1.38
2022-09-23T15:31:38.950Z,1.40
2022-09-23T15:34:05.726Z,1.40
2022-09-23T15:36:32.618Z,1.60
2022-09-23T15:39:04.353Z,1.85
2022-09-23T15:41:32.332Z,1.55
2022-09-23T15:44:05.487Z,1.52
2022-09-23T15:46:33.685Z,1.50
2022-09-23T15:49:08.846Z,1.23
2022-09-23T15:51:38.349Z,1.38
2022-09-23T15:54:14.025Z,1.63
2022-09-23T15:56:40.488Z,2.30
2022-09-23T15:59:06.958Z,1.60
2022-09-23T16:01:36.501Z,1.85
2022-09-23T16:04:04.626Z,1.38
2022-09-23T16:06:32.248Z,1.50
2022-09-23T16:08:58.661Z,1.90
2022-09-23T16:11:31.634Z,1.83
2022-09-23T16:14:00.482Z,1.88
2022-09-23T16:16:27.875Z,1.50
2022-09-23T16:18:54.657Z,1.83
2022-09-23T16:21:24.939Z,1.90
2022-09-23T16:26:30.405Z,1.75
2022-09-23T16:28:58.253Z,2.45
2022-09-23T16:31:25.906Z,2.35
2022-09-23T16:33:53.447Z,2.33
2022-09-23T16:36:28.876Z,2.10
2022-09-23T16:38:55.647Z,2.08
2022-09-23T16:41:23.448Z,2.22
2022-09-23T16:43:53.574Z,1.60
2022-09-23T16:46:20.701Z,2.38
2022-09-23T16:48:52.362Z,1.88
2022-09-23T16:51:21.546Z,2.33
2022-09-23T16:53:51.582Z,2.08
2022-09-23T16:56:25.721Z,1.80
2022-09-23T17:01:44.970Z,1.55
2022-09-23T17:04:13.062Z,2.10
2022-09-23T17:06:50.103Z,2.78
2022-09-23T17:09:23.189Z,5.00
2022-09-23T17:12:00.133Z,5.35
2022-09-23T17:14:31.030Z,4.28
2022-09-23T17:16:58.878Z,3.35
2022-09-23T17:19:25.422Z,2.70
2022-09-23T17:21:53.297Z,2.30
2022-09-23T17:24:19.753Z,1.95
2022-09-23T17:26:49.354Z,2.00
2022-09-23T17:29:19.164Z,1.60
2022-09-23T17:31:46.636Z,1.83
2022-09-23T17:34:13.300Z,1.92
2022-09-23T17:36:40.374Z,2.35
2022-09-23T17:39:07.039Z,3.72
2022-09-23T17:41:33.746Z,3.97
2022-09-23T17:44:00.555Z,3.60
2022-09-23T17:46:30.083Z,3.00
2022-09-23T17:48:57.044Z,2.42
2022-09-23T17:51:25.272Z,2.17
2022-09-23T17:53:51.792Z,2.50
2022-09-23T17:56:27.062Z,2.60
2022-09-23T17:58:53.966Z,1.90
2022-09-23T18:01:25.824Z,3.00
2022-09-23T18:03:57.122Z,2.50
2022-09-23T18:06:25.925Z,2.22
2022-09-23T18:08:52.602Z,1.88
2022-09-23T18:11:20.401Z,2.05
2022-09-23T18:13:52.633Z,2.30
2022-09-23T18:16:20.540Z,2.38
2022-09-23T18:18:55.987Z,2.45
2022-09-23T18:21:24.828Z,2.20
2022-09-23T18:23:51.780Z,2.58
2022-09-23T18:26:21.575Z,2.22
2022-09-23T18:28:49.225Z,2.15
2022-09-23T18:31:16.173Z,1.95
2022-09-23T18:33:42.804Z,2.00
2022-09-23T18:36:09.754Z,2.33
2022-09-23T18:38:36.242Z,2.42
2022-09-23T18:41:02.786Z,2.40
2022-09-23T18:43:37.471Z,2.47
2022-09-23T18:46:11.635Z,2.58
2022-09-23T18:49:07.101Z,2.38
2022-09-23T18:51:36.562Z,2.17
2022-09-23T18:54:05.816Z,2.10
2022-09-23T18:56:41.979Z,3.03
2022-09-23T18:59:12.894Z,2.80
2022-09-23T19:01:39.483Z,2.65
2022-09-23T19:04:07.125Z,2.75
2022-09-23T19:06:35.015Z,6.20
2022-09-23T19:09:01.769Z,4.43
2022-09-23T19:11:28.223Z,3.67
2022-09-23T19:13:56.287Z,5.65
2022-09-23T19:16:26.055Z,4.10
2022-09-23T19:18:53.558Z,3.90
2022-09-23T19:21:22.337Z,3.83
2022-09-23T19:24:14.333Z,3.13
2022-09-23T19:26:41.468Z,3.63
2022-09-23T19:29:12.892Z,3.42
2022-09-23T19:31:40.223Z,3.50
2022-09-23T19:34:11.716Z,3.33
2022-09-23T19:36:40.892Z,3.72
2022-09-23T19:39:11.851Z,3.28
2022-09-23T19:41:38.295Z,4.15
2022-09-23T19:44:07.643Z,4.75
2022-09-23T19:46:39.430Z,5.93
2022-09-23T19:49:07.253Z,5.45
2022-09-23T19:51:34.636Z,4.22
2022-09-23T19:54:01.971Z,4.25
2022-09-23T19:56:29.727Z,4.28
2022-09-23T19:58:58.165Z,4.40
2022-09-23T20:01:26.577Z,4.53
2022-09-23T20:03:53.496Z,4.40
2022-09-23T20:06:20.428Z,4.00
2022-09-23T20:08:47.882Z,3.80
2022-09-23T20:11:26.227Z,3.83
2022-09-23T20:14:02.169Z,3.50
2022-09-23T20:16:32.344Z,3.70
2022-09-23T20:18:59.861Z,4.40
2022-09-23T20:21:27.415Z,4.25
2022-09-23T20:23:53.822Z,5.68
2022-09-23T20:26:38.649Z,4.60
2022-09-23T20:29:05.214Z,3.65
2022-09-23T20:31:32.222Z,3.70
2022-09-23T20:33:58.863Z,4.15
2022-09-23T20:36:26.611Z,3.75
2022-09-23T20:38:57.368Z,3.03
2022-09-23T20:41:23.880Z,3.53
2022-09-23T20:44:00.575Z,4.10
2022-09-23T20:46:28.935Z,4.10
2022-09-23T20:48:56.680Z,3.20
2022-09-23T20:51:24.583Z,3.28
2022-09-23T20:53:53.032Z,3.45
2022-09-23T20:56:23.576Z,3.47
2022-09-23T21:01:18.006Z,3.55
2022-09-23T21:03:47.156Z,4.55
2022-09-23T21:06:15.681Z,4.43
2022-09-23T21:08:43.488Z,4.07
2022-09-23T21:11:15.657Z,5.35
2022-09-23T21:13:50.666Z,4.75
2022-09-23T21:16:19.922Z,4.50
2022-09-23T21:18:48.036Z,3.70
2022-09-23T21:21:14.992Z,5.75
2022-09-23T21:23:43.435Z,5.82
2022-09-23T21:26:12.751Z,4.97
2022-09-23T21:28:41.896Z,5.70
2022-09-23T21:31:17.797Z,6.90
2022-09-23T21:33:44.281Z,6.78
2022-09-23T21:36:10.703Z,7.25
2022-09-23T21:38:38.113Z,7.70
2022-09-23T21:41:11.070Z,7.03
2022-09-23T21:43:40.160Z,6.63
2022-09-23T21:46:09.084Z,6.80
2022-09-23T21:48:37.452Z,7.65
2022-09-23T21:51:06.555Z,8.32
2022-09-23T21:53:36.365Z,7.60
2022-09-23T21:56:09.836Z,8.38
2022-09-23T21:58:38.101Z,7.70
2022-09-23T22:01:14.120Z,6.13
2022-09-23T22:03:43.327Z,8.27
2022-09-23T22:06:12.979Z,8.07
2022-09-23T22:08:42.398Z,7.63
2022-09-23T22:11:34.376Z,8.02
2022-09-23T22:14:03.114Z,7.57
2022-09-23T22:16:30.278Z,6.78
2022-09-23T22:18:59.158Z,7.13
2022-09-23T22:21:27.777Z,7.40
2022-09-23T22:24:01.069Z,7.50
2022-09-23T22:26:29.529Z,6.93
2022-09-23T22:29:14.292Z,5.07
2022-09-23T22:31:59.138Z,6.28
2022-09-23T22:34:48.462Z,7.53
2022-09-23T22:37:20.141Z,7.40
2022-09-23T22:39:47.058Z,6.90
2022-09-23T22:42:14.210Z,8.45
2022-09-23T22:44:40.673Z,7.95
2022-09-23T22:47:08.075Z,7.40
2022-09-23T22:49:34.937Z,7.03
2022-09-23T22:52:03.993Z,8.43
2022-09-23T22:54:33.997Z,7.63
2022-09-23T22:57:03.182Z,5.10
2022-09-23T22:59:30.145Z,4.13
2022-09-23T23:01:57.189Z,3.95
2022-09-23T23:04:23.792Z,4.63
2022-09-23T23:06:50.240Z,4.47
2022-09-23T23:09:18.467Z,3.63
2022-09-23T23:11:45.489Z,4.03
2022-09-23T23:14:14.049Z,3.55
2022-09-23T23:16:42.076Z,4.63
2022-09-23T23:19:13.419Z,4.05
2022-09-23T23:21:44.793Z,4.25
2022-09-23T23:24:16.504Z,4.00
2022-09-23T23:26:43.194Z,4.20
2022-09-23T23:29:14.570Z,4.60
2022-09-23T23:31:41.458Z,4.97
2022-09-23T23:34:12.021Z,4.35
2022-09-23T23:39:05.239Z,3.70
2022-09-23T23:41:31.667Z,3.80
2022-09-23T23:44:00.008Z,4.20
2022-09-23T23:46:28.637Z,4.07
2022-09-23T23:48:56.905Z,3.70
2022-09-23T23:51:26.264Z,4.55
2022-09-23T23:53:53.939Z,4.40
2022-09-23T23:56:22.374Z,3.83
2022-09-23T23:58:57.138Z,4.72
